Terminal Aerodrome Forecast
Issued by NWS

Home | Current Version | Previous Version | Text Only | Print | Product List | Glossary On
Versions: 1 2 3 4 5 6 7 8 9 10 11 12 13 14 15
000
FTUS44 KEPZ 301700 RRA
TAFDMN
TAF
KDMN 301746Z 3018/0118 27011KT P6SM FEW070
     FM302000 27013G23KT P6SM FEW070
     FM010200 29008KT P6SM SKC
     FM011700 26011KT P6SM SKC=

USA.gov is the U.S. government's official web portal to all federal, state and local government web resources and services.